Sandy Hook, Connecticut
Current Conditions -  °F | °C
As of 5:35 AM on Monday 26 Jan 2015 (Local Time) from KOXC Reporting Station
Overcast Overcast  
Wind Chill: -14°   Ceiling: 5000
Heat Index: -8°   Visibility: 10mi
Dew Point: -18°   Wind: 8mph
Humidity: 45%   Direction: 50°NE
Pressure: 29.99"   Gusts: 16mph
Location:  41.42°N, 73.28°W
Report Text: KOXC 261035Z 05007G14KT 10SM OVC050 M08/M18 A2999 RMK AO1
Loading
Personal Weather Stations






























Interactive Weather Map New forecast layout! Learn more

10-Day Weather Forecast

Advertisements
Track Severe Weather on mobile